Time;durP1;ratioP1;P1;durP2;ratioP2;P2;SDS_P1;SDS_P2;PMS_P1;PMS_P2;Temp;Humidity;BMP_temperature;BMP_pressure;BME280_temperature;BME280_humidity;BME280_pressure;Samples;Min_cycle;Max_cycle;Signal;HPM_P1;HPM_P2
2022/03/23 00:01:00;;;;;;;21.60;16.97;;;;;;;3.67;74.82;101420.03;4964970;28;20250;-61
2022/03/23 00:03:26;;;;;;;21.90;16.67;;;;;;;3.61;75.61;101428.56;4976720;28;20573;-60
2022/03/23 00:05:53;;;;;;;18.93;16.83;;;;;;;3.62;75.94;101419.22;5008496;28;20318;-59
2022/03/23 00:08:19;;;;;;;20.50;16.90;;;;;;;3.66;75.85;101425.97;4989577;28;20243;-59
2022/03/23 00:10:45;;;;;;;21.90;17.03;;;;;;;3.58;76.01;101430.28;5001499;28;20236;-59
2022/03/23 00:13:10;;;;;;;21.50;16.57;;;;;;;3.47;76.49;101422.69;5011420;28;20651;-60
2022/03/23 00:15:36;;;;;;;20.10;16.50;;;;;;;3.44;76.60;101427.78;4999860;28;20318;-60
2022/03/23 00:18:01;;;;;;;21.37;17.47;;;;;;;3.41;77.56;101427.78;5011555;28;20187;-59
2022/03/23 00:20:26;;;;;;;17.93;15.40;;;;;;;3.38;77.74;101421.03;5002562;28;20670;-59
2022/03/23 00:22:52;;;;;;;20.17;17.20;;;;;;;3.34;78.06;101430.34;4998539;28;20204;-59
2022/03/23 00:25:17;;;;;;;20.57;17.03;;;;;;;3.25;79.50;101430.41;4992743;28;20255;-58
2022/03/23 00:27:43;;;;;;;22.77;17.53;;;;;;;3.27;79.73;101428.69;4992866;28;20189;-58
2022/03/23 00:30:10;;;;;;;21.80;16.63;;;;;;;3.33;79.28;101428.66;4961852;28;20173;-59
2022/03/23 00:32:35;;;;;;;20.13;16.70;;;;;;;3.25;78.99;101427.00;4960645;28;20186;-60
2022/03/23 00:35:02;;;;;;;22.03;17.97;;;;;;;3.11;79.33;101427.88;4992367;28;20180;-59
2022/03/23 00:37:27;;;;;;;24.23;17.87;;;;;;;3.13;79.31;101423.63;4990607;28;20236;-59
2022/03/23 00:39:52;;;;;;;22.33;18.10;;;;;;;3.14;79.08;101424.47;4992194;28;20532;-59
2022/03/23 00:42:18;;;;;;;21.40;17.57;;;;;;;3.18;78.85;101423.63;4981333;28;20241;-60
2022/03/23 00:44:43;;;;;;;21.37;17.43;;;;;;;3.10;78.58;101428.75;4992055;28;20177;-60
2022/03/23 00:47:09;;;;;;;19.20;16.70;;;;;;;3.12;78.58;101427.03;4992310;28;20211;-60
2022/03/23 00:49:35;;;;;;;22.37;17.50;;;;;;;3.03;78.54;101422.81;4992568;28;20189;-59
2022/03/23 00:52:02;;;;;;;24.57;17.60;;;;;;;2.98;78.80;101428.75;4968016;28;20259;-60
2022/03/23 00:54:28;;;;;;;22.37;16.43;;;;;;;2.99;78.86;101417.72;4971417;28;20186;-59
2022/03/23 00:56:53;;;;;;;22.63;17.27;;;;;;;3.02;78.58;101418.56;4973118;28;20181;-60
2022/03/23 00:59:19;;;;;;;20.43;16.67;;;;;;;3.00;78.69;101424.50;4973169;28;20203;-59
2022/03/23 01:01:45;;;;;;;18.93;15.73;;;;;;;2.92;79.41;101414.34;4964411;28;20244;-58
2022/03/23 01:04:12;;;;;;;25.63;17.57;;;;;;;2.83;79.85;101420.31;4974197;28;20246;-59
2022/03/23 01:06:38;;;;;;;21.60;16.97;;;;;;;2.77;80.61;101420.31;4971608;28;20187;-57
2022/03/23 01:09:03;;;;;;;19.80;16.47;;;;;;;2.66;81.37;101417.75;4971661;28;20180;-57
2022/03/23 01:11:28;;;;;;;19.03;16.20;;;;;;;2.63;82.05;101416.91;4973742;28;20226;-57
2022/03/23 01:13:54;;;;;;;22.27;16.90;;;;;;;2.64;81.66;101421.16;4976483;28;20319;-57
2022/03/23 01:16:19;;;;;;;20.77;16.23;;;;;;;2.68;81.27;101417.75;4971355;28;20227;-57
2022/03/23 01:18:45;;;;;;;21.07;16.70;;;;;;;2.69;81.10;101419.47;4972979;28;20647;-58
2022/03/23 01:21:10;;;;;;;20.23;16.30;;;;;;;2.66;80.80;101420.31;4971190;28;20720;-58
2022/03/23 01:23:35;;;;;;;23.07;17.70;;;;;;;2.67;80.77;101421.16;4990959;28;20180;-58
2022/03/23 01:26:01;;;;;;;20.90;17.37;;;;;;;2.59;81.30;101423.69;4992216;28;20190;-59
2022/03/23 01:28:26;;;;;;;25.80;17.57;;;;;;;2.58;81.38;101415.22;4992173;28;20226;-58
2022/03/23 01:30:51;;;;;;;20.47;16.80;;;;;;;2.59;81.40;101418.59;4984040;28;20223;-58
2022/03/23 01:33:16;;;;;;;22.03;18.07;;;;;;;2.55;81.04;101420.31;5001024;28;20187;-58
2022/03/23 01:35:42;;;;;;;23.47;17.57;;;;;;;2.51;81.33;101420.31;4991717;28;20199;-58
2022/03/23 01:38:07;;;;;;;26.63;17.10;;;;;;;2.47;81.85;101422.00;4991859;28;20206;-58
2022/03/23 01:40:32;;;;;;;22.97;17.80;;;;;;;2.45;81.62;101416.06;4986008;28;20674;-58
2022/03/23 01:42:58;;;;;;;22.13;17.20;;;;;;;2.44;82.40;101413.53;5002958;28;20208;-59
2022/03/23 01:45:23;;;;;;;24.30;16.90;;;;;;;2.38;82.40;101416.91;4995604;28;20184;-57
2022/03/23 01:47:48;;;;;;;21.57;16.53;;;;;;;2.34;82.53;101415.22;4996015;28;20205;-57
2022/03/23 01:50:14;;;;;;;21.17;17.07;;;;;;;2.42;82.31;101413.56;4987230;28;20176;-58
2022/03/23 01:52:40;;;;;;;22.20;17.30;;;;;;;2.35;81.93;101416.94;4993948;28;20219;-59
2022/03/23 01:55:09;;;;;;;19.10;15.57;;;;;;;2.41;81.75;101416.94;4995104;28;20191;-60
2022/03/23 01:57:37;;;;;;;22.67;17.00;;;;;;;2.46;81.38;101414.41;4994273;28;20253;-59
2022/03/23 02:00:06;;;;;;;21.40;18.17;;;;;;;2.36;81.48;101426.25;4985927;28;20533;-58
2022/03/23 02:02:31;;;;;;;21.57;18.53;;;;;;;2.29;82.15;101420.28;4993261;28;20322;-59
2022/03/23 02:04:56;;;;;;;22.43;16.73;;;;;;;2.27;82.20;101422.00;4998793;28;20186;-59
2022/03/23 02:07:22;;;;;;;23.13;17.10;;;;;;;2.23;82.82;101425.38;5015053;28;20186;-57
2022/03/23 02:09:48;;;;;;;23.00;18.20;;;;;;;2.06;83.64;101415.19;5015337;28;20171;-58
2022/03/23 02:12:13;;;;;;;21.10;17.10;;;;;;;2.12;83.48;101422.81;4988752;28;20247;-58
2022/03/23 02:14:39;;;;;;;24.27;17.47;;;;;;;2.13;83.32;101423.66;5012909;28;20163;-58
2022/03/23 02:17:05;;;;;;;22.47;17.80;;;;;;;2.07;83.73;101416.88;5014811;28;20595;-57
2022/03/23 02:19:30;;;;;;;23.43;17.13;;;;;;;2.06;84.01;101417.72;5013295;28;20183;-58
2022/03/23 02:21:56;;;;;;;23.23;18.13;;;;;;;2.06;83.93;101421.13;4985679;28;20289;-57
2022/03/23 02:24:24;;;;;;;20.50;17.20;;;;;;;2.10;84.02;101417.72;4992046;28;20592;-57
2022/03/23 02:26:50;;;;;;;23.53;17.07;;;;;;;2.09;84.34;101423.66;4993614;28;20207;-57
2022/03/23 02:29:16;;;;;;;24.80;17.90;;;;;;;2.12;84.40;101421.97;4993520;28;20191;-59
2022/03/23 02:31:41;;;;;;;21.87;16.80;;;;;;;2.09;84.40;101418.56;4984134;28;20231;-57
2022/03/23 02:34:07;;;;;;;22.63;18.23;;;;;;;2.09;84.56;101420.28;4993367;28;20180;-59
2022/03/23 02:36:32;;;;;;;24.83;17.60;;;;;;;2.01;84.75;101421.94;4994916;28;20187;-59
2022/03/23 02:38:58;;;;;;;23.27;17.40;;;;;;;1.95;85.48;101422.78;4994797;28;20176;-59
2022/03/23 02:41:23;;;;;;;22.47;17.23;;;;;;;1.88;85.94;101421.06;4984078;28;20792;-58
2022/03/23 02:43:49;;;;;;;21.83;17.33;;;;;;;1.93;85.96;101416.84;4993655;28;20179;-58
2022/03/23 02:46:17;;;;;;;23.33;17.63;;;;;;;1.90;85.91;101416.84;4993385;28;20559;-58
2022/03/23 02:48:43;;;;;;;22.70;17.23;;;;;;;1.85;86.49;101423.59;4993486;28;20184;-58
2022/03/23 02:51:08;;;;;;;24.70;18.23;;;;;;;1.80;86.98;101420.19;4977585;28;20246;-58
2022/03/23 03:02:22;;;;;;;25.43;18.53;;;;;;;1.60;87.17;101428.56;4982547;28;20250;-58
2022/03/23 03:04:51;;;;;;;21.93;17.73;;;;;;;1.57;87.30;101420.97;4992583;28;20635;-57
2022/03/23 03:07:18;;;;;;;21.73;18.10;;;;;;;1.56;88.10;101424.34;4993074;28;20194;-57
2022/03/23 03:09:44;;;;;;;24.00;18.30;;;;;;;1.56;88.33;101426.88;4993034;28;20289;-58
2022/03/23 03:12:11;;;;;;;23.50;17.93;;;;;;;1.58;88.44;101427.75;4983195;28;20235;-57
2022/03/23 03:14:37;;;;;;;25.10;18.57;;;;;;;1.58;88.01;101431.13;4993728;28;20539;-57
2022/03/23 03:17:03;;;;;;;21.30;17.80;;;;;;;1.54;88.14;101428.53;4992513;28;20249;-58
2022/03/23 03:19:28;;;;;;;26.00;19.53;;;;;;;1.52;88.53;101426.00;4994041;28;20269;-57
2022/03/23 03:21:54;;;;;;;21.97;18.60;;;;;;;1.49;88.94;101428.56;4982602;28;20223;-57
2022/03/23 03:24:20;;;;;;;23.93;19.13;;;;;;;1.45;89.22;101431.91;4991046;28;20207;-56
2022/03/23 03:26:48;;;;;;;24.33;19.47;;;;;;;1.43;88.83;101433.59;4992754;28;20674;-56
2022/03/23 03:29:14;;;;;;;24.03;18.10;;;;;;;1.36;89.41;101430.16;4993845;28;20191;-57
2022/03/23 03:31:40;;;;;;;25.33;19.30;;;;;;;1.39;89.10;101434.41;4995785;28;20269;-57
2022/03/23 03:34:05;;;;;;;27.67;20.20;;;;;;;1.40;89.40;101428.50;4995735;28;20274;-56
2022/03/23 03:36:31;;;;;;;22.10;18.37;;;;;;;1.36;89.96;101437.78;4992601;28;20183;-58
2022/03/23 03:38:56;;;;;;;27.53;18.87;;;;;;;1.39;89.74;101437.81;4993823;28;20187;-56
2022/03/23 03:41:22;;;;;;;25.30;17.90;;;;;;;1.46;89.48;101431.06;4974844;28;20297;-58
2022/03/23 03:43:48;;;;;;;22.27;17.17;;;;;;;1.43;89.46;101441.19;4992700;28;20172;-57
2022/03/23 03:46:14;;;;;;;23.10;17.53;;;;;;;1.40;89.78;101438.63;4992161;28;20175;-57
2022/03/23 03:48:40;;;;;;;23.57;18.20;;;;;;;1.33;90.23;101436.91;4993499;28;20274;-57
2022/03/23 03:51:06;;;;;;;30.10;18.80;;;;;;;1.27;90.85;101433.50;4982745;28;20227;-59
2022/03/23 03:53:32;;;;;;;24.27;18.70;;;;;;;1.27;91.14;101438.56;4980163;28;20188;-57
2022/03/23 03:55:58;;;;;;;21.00;17.03;;;;;;;1.28;91.59;101435.19;4973723;28;20298;-57
2022/03/23 03:58:23;;;;;;;24.20;18.57;;;;;;;1.20;91.88;101443.59;4991763;28;20282;-57
2022/03/23 04:00:49;;;;;;;25.03;18.83;;;;;;;1.08;92.66;101445.22;4978675;28;20242;-56
2022/03/23 04:03:14;;;;;;;25.83;19.70;;;;;;;1.02;93.55;101454.47;4993161;28;20185;-57
2022/03/23 04:05:39;;;;;;;27.13;21.00;;;;;;;1.02;94.29;101449.38;4973469;28;20184;-58
2022/03/23 04:08:05;;;;;;;30.70;19.57;;;;;;;1.09;94.63;101453.66;4988660;28;20195;-56
2022/03/23 04:10:31;;;;;;;29.00;21.27;;;;;;;1.12;94.21;101452.00;4982766;28;20227;-58
2022/03/23 04:12:57;;;;;;;23.70;20.00;;;;;;;1.17;93.99;101451.22;4991849;28;20180;-58
2022/03/23 04:15:25;;;;;;;26.10;19.57;;;;;;;1.00;94.35;101453.63;4981058;28;20232;-57
2022/03/23 04:17:52;;;;;;;26.33;19.90;;;;;;;1.07;94.12;101453.66;4978467;28;20199;-59
2022/03/23 04:20:18;;;;;;;28.03;20.60;;;;;;;1.08;93.80;101455.38;4981461;28;20179;-56
2022/03/23 04:22:43;;;;;;;27.40;20.33;;;;;;;1.10;93.53;101452.84;4972049;28;20662;-57
2022/03/23 04:25:11;;;;;;;26.03;20.53;;;;;;;0.99;93.71;101457.00;4973674;28;20212;-56
2022/03/23 04:27:51;;;;;;;25.93;18.53;;;;;;;0.86;94.43;101461.97;4972166;28;20183;-57
2022/03/23 04:30:19;;;;;;;28.77;19.87;;;;;;;0.92;95.34;101456.94;4962100;28;20186;-56
2022/03/23 04:32:46;;;;;;;26.70;20.43;;;;;;;0.95;95.07;101461.19;4991918;28;20187;-57
2022/03/23 04:35:12;;;;;;;25.13;19.43;;;;;;;0.96;94.69;101456.13;4992407;28;20210;-57
2022/03/23 04:37:38;;;;;;;30.90;21.83;;;;;;;0.95;94.62;101464.56;4991236;28;20187;-56
2022/03/23 04:40:05;;;;;;;30.63;20.50;;;;;;;0.86;95.23;101461.97;4981037;28;20183;-57
2022/03/23 04:42:30;;;;;;;33.10;22.40;;;;;;;0.90;95.19;101471.28;4975298;28;20230;-56
2022/03/23 04:44:55;;;;;;;25.80;19.97;;;;;;;0.87;95.52;101466.19;4991996;28;20647;-57
2022/03/23 04:47:21;;;;;;;27.00;21.00;;;;;;;0.89;95.36;101468.75;4992636;28;20180;-58
2022/03/23 04:49:46;;;;;;;27.20;21.20;;;;;;;0.86;95.25;101469.56;4992596;28;20175;-57
2022/03/23 04:52:13;;;;;;;25.30;19.90;;;;;;;0.92;94.87;101481.44;4965469;28;20223;-57
2022/03/23 04:54:38;;;;;;;26.90;19.57;;;;;;;0.84;94.87;101470.41;4971255;28;20187;-57
2022/03/23 04:57:04;;;;;;;24.83;20.00;;;;;;;0.82;95.00;101480.53;4972989;28;20180;-56
2022/03/23 04:59:29;;;;;;;25.37;19.63;;;;;;;0.84;94.77;101475.47;5008719;28;20217;-57
2022/03/23 05:01:54;;;;;;;24.23;19.80;;;;;;;0.83;95.04;101476.28;4979450;28;20245;-57
2022/03/23 05:04:20;;;;;;;24.47;20.30;;;;;;;0.82;95.33;101479.66;5007986;28;20178;-57
2022/03/23 05:06:45;;;;;;;25.87;20.63;;;;;;;0.80;95.54;101493.16;5010742;28;20498;-57
2022/03/23 05:09:11;;;;;;;25.43;19.73;;;;;;;0.76;95.90;101483.00;5012021;28;20254;-57
2022/03/23 05:11:36;;;;;;;23.70;18.70;;;;;;;0.76;95.63;101490.59;5000979;28;20514;-58
2022/03/23 05:14:01;;;;;;;24.07;18.03;;;;;;;0.74;95.16;101490.56;5006497;28;20194;-57
2022/03/23 05:16:27;;;;;;;24.43;18.47;;;;;;;0.78;95.05;101496.50;5010642;28;20182;-58
2022/03/23 05:18:52;;;;;;;23.40;18.53;;;;;;;0.70;95.06;101488.84;5015481;28;20204;-57
2022/03/23 05:21:17;;;;;;;22.80;17.60;;;;;;;0.71;95.43;101494.75;4997112;28;20234;-57
2022/03/23 05:23:43;;;;;;;21.40;17.70;;;;;;;0.71;95.64;101495.63;4995081;28;20682;-57
2022/03/23 05:26:08;;;;;;;23.63;17.93;;;;;;;0.70;95.90;101495.63;4995439;28;20182;-58
2022/03/23 05:28:34;;;;;;;23.83;18.73;;;;;;;0.71;95.69;101495.63;4996248;28;20197;-56
2022/03/23 05:30:59;;;;;;;25.27;18.40;;;;;;;0.72;95.78;101491.38;4985532;28;20231;-57
2022/03/23 05:33:24;;;;;;;28.57;19.10;;;;;;;0.75;95.67;101488.91;4994771;28;20184;-56
2022/03/23 05:35:49;;;;;;;27.57;18.90;;;;;;;0.73;95.86;101490.56;4995967;28;20214;-63
2022/03/23 05:38:15;;;;;;;23.83;19.27;;;;;;;0.74;95.92;101489.72;4994675;28;20296;-57
2022/03/23 05:40:40;;;;;;;22.00;18.07;;;;;;;0.63;96.12;101485.44;4990704;28;20584;-57
2022/03/23 05:43:05;;;;;;;25.37;19.00;;;;;;;0.67;96.72;101493.03;5005574;28;20750;-58
2022/03/23 05:45:31;;;;;;;27.20;19.33;;;;;;;0.71;97.12;101493.09;4996018;28;20183;-59
2022/03/23 05:47:56;;;;;;;22.67;18.70;;;;;;;0.86;96.40;101501.66;4995819;28;20175;-59
2022/03/23 05:50:22;;;;;;;28.40;20.77;;;;;;;0.79;96.52;101495.69;4988411;28;20242;-57
2022/03/23 05:52:47;;;;;;;25.23;20.17;;;;;;;0.85;96.11;101494.91;5008293;28;20515;-57
2022/03/23 05:55:13;;;;;;;23.60;19.43;;;;;;;0.93;96.09;101491.59;4993816;28;20180;-57
2022/03/23 05:57:39;;;;;;;29.00;20.60;;;;;;;0.94;95.88;101495.81;4995659;28;20245;-57
2022/03/23 06:00:08;;;;;;;24.60;18.53;;;;;;;0.99;nan;101497.53;4983913;28;20187;-56
2022/03/23 06:02:34;;;;;;;24.43;19.17;;;;;;;1.16;94.84;101497.66;4978473;28;20226;-58
2022/03/23 06:04:59;;;;;;;26.63;19.13;;;;;;;1.35;94.82;101496.91;4993338;28;20183;-57
2022/03/23 06:07:25;;;;;;;30.20;21.40;;;;;;;1.50;93.15;101492.78;4995415;28;20183;-57
2022/03/23 06:09:50;;;;;;;29.30;19.67;;;;;;;1.71;91.52;101500.53;4993820;28;20180;-58
2022/03/23 06:12:15;;;;;;;24.63;20.30;;;;;;;1.78;90.17;101502.22;5000573;28;20340;-57
2022/03/23 06:14:43;;;;;;;23.17;19.20;;;;;;;2.05;89.08;101500.66;4994720;28;20179;-58
2022/03/23 06:17:09;;;;;;;30.53;21.30;;;;;;;2.12;88.03;101506.56;4993911;28;20195;-59
2022/03/23 06:19:35;;;;;;;24.60;20.07;;;;;;;2.32;87.23;101503.25;4993540;28;20619;-58
2022/03/23 06:22:00;;;;;;;28.90;21.17;;;;;;;2.55;86.15;101513.47;4999595;28;20234;-59
2022/03/23 06:24:26;;;;;;;30.93;22.30;;;;;;;2.77;84.27;101513.47;4992804;28;20214;-59
2022/03/23 06:26:51;;;;;;;25.33;19.80;;;;;;;2.87;83.11;101512.66;4994945;28;20183;-59
2022/03/23 06:29:17;;;;;;;26.93;22.20;;;;;;;2.95;82.86;101515.19;4994623;28;20171;-60
2022/03/23 06:31:42;;;;;;;28.90;21.23;;;;;;;3.12;82.47;101515.19;4986707;28;20262;-59
2022/03/23 06:34:08;;;;;;;29.77;22.63;;;;;;;3.11;81.40;101523.66;4996963;28;20169;-59
2022/03/23 06:36:35;;;;;;;32.10;23.53;;;;;;;3.15;81.83;101526.19;4994691;28;20259;-59
2022/03/23 06:39:00;;;;;;;28.60;23.67;;;;;;;3.43;82.05;101522.75;4977482;28;20637;-59
2022/03/23 06:41:25;;;;;;;33.30;23.43;;;;;;;4.00;79.90;101520.88;4986439;28;20237;-60
2022/03/23 06:43:51;;;;;;;28.10;23.17;;;;;;;4.74;75.34;101516.19;4998865;28;20575;-61
2022/03/23 06:46:16;;;;;;;28.30;22.50;;;;;;;5.33;70.88;101517.41;4993560;28;20675;-60
2022/03/23 06:48:42;;;;;;;31.07;22.70;;;;;;;5.91;67.88;101522.69;4994867;28;20174;-60
2022/03/23 06:51:07;;;;;;;35.10;26.67;;;;;;;6.38;64.75;101524.69;4993161;28;20249;-57
2022/03/23 06:53:32;;;;;;;29.60;22.50;;;;;;;6.76;61.43;101528.38;4992562;28;20258;-57
2022/03/23 06:55:57;;;;;;;27.47;21.60;;;;;;;7.10;59.54;101522.72;4994166;28;20184;-58
2022/03/23 06:58:23;;;;;;;34.33;21.43;;;;;;;7.95;56.42;101520.25;4994640;28;20186;-57
2022/03/23 07:00:48;;;;;;;28.20;22.27;;;;;;;8.90;53.33;101526.72;4985825;28;20237;-58
2022/03/23 07:03:13;;;;;;;24.40;21.80;;;;;;;10.81;48.84;101523.84;5003156;28;20278;-58
2022/03/23 07:05:39;;;;;;;25.63;20.23;;;;;;;12.84;43.54;101520.78;4994341;28;20187;-58
2022/03/23 07:10:49;;;;;;;24.80;20.73;;;;;;;13.52;39.96;101517.91;4983931;28;20777;-57
2022/03/23 07:13:14;;;;;;;22.47;20.07;;;;;;;13.60;38.85;101526.16;4999797;28;20549;-58
2022/03/23 07:15:42;;;;;;;22.93;19.00;;;;;;;15.22;36.75;101524.56;5008719;28;20183;-59
2022/03/23 07:18:08;;;;;;;22.97;20.57;;;;;;;16.32;33.87;101529.97;5010390;28;20213;-59
2022/03/23 07:20:33;;;;;;;21.57;19.57;;;;;;;16.81;32.69;101534.13;5000197;28;20230;-58
2022/03/23 07:22:58;;;;;;;21.53;19.33;;;;;;;16.89;32.48;101531.09;4987210;28;20249;-58
2022/03/23 07:25:24;;;;;;;19.87;17.80;;;;;;;16.93;32.41;101535.19;5009475;28;20178;-58
2022/03/23 07:27:49;;;;;;;21.40;19.17;;;;;;;16.39;32.58;101541.69;5012560;28;20618;-67
2022/03/23 07:30:16;;;;;;;21.67;19.27;;;;;;;17.14;31.56;101535.72;5000090;28;20183;-58
2022/03/23 07:32:41;;;;;;;20.30;18.30;;;;;;;18.17;29.74;101540.75;4990288;28;20278;-60
2022/03/23 07:35:07;;;;;;;22.50;19.77;;;;;;;18.23;29.97;101538.59;5009730;28;20266;-59
2022/03/23 07:37:33;;;;;;;20.83;18.37;;;;;;;17.36;30.28;101535.25;5008720;28;20641;-59
2022/03/23 07:39:59;;;;;;;21.57;19.27;;;;;;;16.56;31.70;101545.09;5009595;28;20179;-58
2022/03/23 07:42:25;;;;;;;20.83;18.67;;;;;;;16.59;32.49;101547.53;4983667;28;20285;-58
2022/03/23 07:44:50;;;;;;;20.57;18.63;;;;;;;17.14;31.80;101540.94;5008771;28;20244;-57
2022/03/23 07:47:15;;;;;;;21.37;19.17;;;;;;;18.54;29.57;101547.03;5010035;28;20195;-58
2022/03/23 07:49:42;;;;;;;20.47;18.47;;;;;;;19.21;29.01;101549.63;5008203;28;20277;-58
2022/03/23 07:52:08;;;;;;;20.37;18.20;;;;;;;19.61;27.70;101549.47;4980277;28;20223;-57
2022/03/23 07:54:35;;;;;;;20.73;18.63;;;;;;;17.56;29.79;101543.59;5007120;28;20178;-68
2022/03/23 07:57:01;;;;;;;20.77;18.67;;;;;;;17.04;31.23;101542.38;4990746;28;20610;-60
2022/03/23 07:59:26;;;;;;;21.73;19.43;;;;;;;17.38;30.38;101545.59;4993866;28;20176;-61
2022/03/23 08:01:52;;;;;;;20.80;18.60;;;;;;;16.92;31.06;101546.53;4961823;28;20287;-60
2022/03/23 08:04:17;;;;;;;22.47;18.97;;;;;;;17.95;29.88;101549.06;4980877;28;20628;-60
2022/03/23 08:06:43;;;;;;;23.53;18.63;;;;;;;16.81;31.61;101544.53;4982754;28;20171;-62
2022/03/23 08:09:09;;;;;;;24.57;19.50;;;;;;;15.09;33.65;101551.09;4991853;28;20646;-60
2022/03/23 08:11:35;;;;;;;21.23;19.07;;;;;;;16.59;32.32;101548.34;4980066;28;20223;-61
2022/03/23 08:14:00;;;;;;;20.70;18.57;;;;;;;18.21;29.43;101543.06;4971448;28;20187;-60
2022/03/23 08:16:26;;;;;;;20.57;18.07;;;;;;;19.62;27.65;101548.56;4974000;28;20227;-60
2022/03/23 08:18:54;;;;;;;20.73;18.67;;;;;;;19.43;27.96;101543.78;4982260;28;20619;-59
2022/03/23 08:21:23;;;;;;;21.13;18.20;;;;;;;19.72;27.74;101546.13;4983027;28;20694;-59
2022/03/23 08:23:50;;;;;;;22.40;20.20;;;;;;;19.63;27.73;101539.78;4999794;28;20271;-64
2022/03/23 08:26:17;;;;;;;20.53;18.63;;;;;;;17.72;30.16;101549.56;5010038;28;20194;-61
2022/03/23 08:28:44;;;;;;;21.57;19.43;;;;;;;16.06;32.98;101544.41;5010219;28;20626;-61
2022/03/23 08:31:10;;;;;;;24.17;20.10;;;;;;;15.20;34.45;101554.94;4970405;28;20223;-60
2022/03/23 08:33:36;;;;;;;24.93;20.27;;;;;;;14.90;35.13;101545.19;4984752;28;20637;-60
2022/03/23 08:36:03;;;;;;;23.00;20.60;;;;;;;14.47;35.85;101542.91;5008144;28;20269;-58
2022/03/23 08:38:29;;;;;;;22.63;20.10;;;;;;;15.98;33.24;101544.81;5010978;28;20256;-61
2022/03/23 08:40:54;;;;;;;23.30;20.90;;;;;;;16.18;33.51;101538.53;5001981;28;20293;-61
2022/03/23 08:43:20;;;;;;;23.83;21.27;;;;;;;14.88;35.07;101541.84;4984165;28;20635;-61
2022/03/23 08:45:46;;;;;;;25.00;20.60;;;;;;;14.26;36.20;101548.19;5011753;28;20554;-60
2022/03/23 08:48:12;;;;;;;25.50;22.90;;;;;;;14.56;36.91;101542.44;5009269;28;20426;-58
2022/03/23 08:50:37;;;;;;;25.70;21.80;;;;;;;14.13;36.86;101539.34;5001614;28;20226;-59
2022/03/23 08:53:05;;;;;;;26.97;20.70;;;;;;;14.07;36.77;101540.44;4984367;28;20176;-58
2022/03/23 08:55:31;;;;;;;24.23;21.50;;;;;;;14.21;37.53;101539.78;4995098;28;20186;-58
2022/03/23 08:57:57;;;;;;;24.43;19.20;;;;;;;15.49;35.24;101537.84;5010333;28;20197;-58
2022/03/23 09:00:22;;;;;;;24.13;21.43;;;;;;;15.59;33.95;101536.47;4999028;28;20313;-58
2022/03/23 09:02:49;;;;;;;22.57;19.77;;;;;;;16.85;33.03;101534.78;4995955;28;20225;-59
2022/03/23 09:05:15;;;;;;;22.97;20.47;;;;;;;18.68;29.89;101530.47;5007974;28;20186;-59
2022/03/23 09:07:43;;;;;;;22.77;20.47;;;;;;;20.97;26.71;101529.25;5007226;28;20419;-57
2022/03/23 09:10:13;;;;;;;22.88;20.25;;;;;;;21.30;24.02;101525.00;4995336;28;20792;-57
2022/03/23 09:12:40;;;;;;;19.30;17.00;;;;;;;21.01;24.29;101532.47;4991246;28;20205;-60
2022/03/23 09:15:07;;;;;;;21.97;19.83;;;;;;;22.43;22.09;101537.06;4991214;28;20408;-60
2022/03/23 09:17:33;;;;;;;22.30;18.70;;;;;;;22.07;23.40;101536.47;4991424;28;20300;-59
2022/03/23 09:20:00;;;;;;;21.23;19.00;;;;;;;23.23;20.97;101534.78;4994683;28;20274;-61
2022/03/23 09:22:27;;;;;;;21.10;18.33;;;;;;;22.19;22.20;101535.47;4990243;28;20235;-60
2022/03/23 09:24:52;;;;;;;20.50;18.25;;;;;;;22.46;22.86;101536.78;4991897;28;20182;-60
2022/03/23 09:27:17;;;;;;;20.50;18.30;;;;;;;21.31;22.44;101539.75;5003189;28;20203;-60
2022/03/23 09:29:44;;;;;;;24.33;18.83;;;;;;;22.23;21.75;101543.91;5010952;28;20648;-61
2022/03/23 09:32:12;;;;;;;21.52;19.38;;;;;;;22.42;22.99;101542.44;4999545;28;20234;-60
2022/03/23 09:34:38;;;;;;;21.02;18.92;;;;;;;20.74;24.65;101546.66;5006313;28;20183;-59
2022/03/23 09:39:48;;;;;;;20.35;18.38;;;;;;;22.54;22.77;101544.88;5011521;28;20173;-61
2022/03/23 09:42:16;;;;;;;20.45;18.33;;;;;;;24.07;21.44;101538.91;4985386;28;20321;-61
2022/03/23 09:44:44;;;;;;;20.10;18.00;;;;;;;24.54;20.19;101538.19;5010963;28;20183;-60
2022/03/23 09:47:09;;;;;;;20.70;18.30;;;;;;;24.92;19.51;101541.75;5011779;28;20210;-60
2022/03/23 09:49:35;;;;;;;22.00;18.00;;;;;;;24.91;19.59;101542.72;5011492;28;20217;-60
2022/03/23 09:52:01;;;;;;;18.65;16.75;;;;;;;24.86;19.42;101544.13;4984258;28;20247;-60
2022/03/23 09:54:27;;;;;;;20.08;18.05;;;;;;;25.24;19.73;101543.19;4993725;28;20688;-62
2022/03/23 09:56:52;;;;;;;21.10;18.10;;;;;;;25.33;19.33;101541.47;5009805;28;20183;-61
2022/03/23 09:59:17;;;;;;;20.98;18.75;;;;;;;25.32;18.96;101542.44;5011261;28;20225;-61
2022/03/23 10:01:51;;;;;;;26.20;18.50;;;;;;;25.24;19.28;101542.34;4999860;28;20463;-59
2022/03/23 10:04:17;;;;;;;19.55;17.40;;;;;;;24.54;21.93;101535.56;5011573;28;20174;-60
2022/03/23 10:07:01;;;;;;;25.10;18.00;;;;;;;25.11;19.59;101538.22;5014841;28;20262;-66
2022/03/23 10:09:26;;;;;;;19.13;17.13;;;;;;;23.98;20.75;101542.38;5014792;28;20212;-61
2022/03/23 10:12:32;;;;;;;18.83;16.92;;;;;;;24.16;19.75;101538.09;4986951;28;20226;-60
2022/03/23 10:15:35;;;;;;;18.30;16.40;;;;;;;24.91;19.07;101534.00;4986245;28;20275;-59
2022/03/23 10:18:37;;;;;;;19.45;17.45;;;;;;;25.59;18.60;101536.38;4973973;28;20353;-60
2022/03/23 10:21:03;;;;;;;20.67;18.27;;;;;;;24.98;20.14;101535.91;4971568;28;20259;-59
2022/03/23 10:23:29;;;;;;;19.88;17.88;;;;;;;26.20;19.98;101528.75;4991708;28;20190;-59
2022/03/23 10:25:55;;;;;;;19.20;17.40;;;;;;;27.65;18.22;101530.91;5012823;28;20179;-59
2022/03/23 10:28:21;;;;;;;20.40;18.45;;;;;;;27.52;17.28;101536.66;5012416;28;20410;-60
2022/03/23 10:30:47;;;;;;;20.75;18.67;;;;;;;27.64;18.05;101534.53;4998544;28;20438;-59
2022/03/23 10:33:22;;;;;;;19.80;17.85;;;;;;;25.57;19.57;101525.16;5001820;28;20194;-60
2022/03/23 10:35:48;;;;;;;20.20;18.23;;;;;;;24.34;20.29;101525.06;5013864;28;20456;-63
2022/03/23 10:38:21;;;;;;;20.67;18.60;;;;;;;22.33;23.12;101530.91;5013119;28;20187;-61
2022/03/23 10:40:50;;;;;;;22.30;18.08;;;;;;;20.53;24.69;101529.00;5003622;28;20240;-61
2022/03/23 10:43:20;;;;;;;19.73;17.73;;;;;;;20.53;25.27;101521.16;4993215;28;20436;-59
2022/03/23 10:45:46;;;;;;;19.13;17.33;;;;;;;18.87;27.34;101526.66;4994953;28;20232;-59
2022/03/23 10:48:14;;;;;;;20.27;18.20;;;;;;;17.90;27.47;101521.53;4991693;28;20424;-60
2022/03/23 10:50:57;;;;;;;19.53;17.43;;;;;;;16.92;27.48;101518.78;4984122;28;20235;-60
2022/03/23 10:53:41;;;;;;;21.83;17.97;;;;;;;16.36;30.61;101515.06;4983360;28;20175;-62
2022/03/23 10:56:07;;;;;;;22.07;16.27;;;;;;;16.51;30.20;101515.94;5007597;28;20190;-61
2022/03/23 10:58:32;;;;;;;20.50;18.07;;;;;;;16.63;29.79;101512.63;5007855;28;20240;-62
2022/03/23 11:01:01;;;;;;;19.80;17.00;;;;;;;16.39;29.93;101501.91;4996455;28;20227;-63
2022/03/23 11:03:37;;;;;;;19.80;17.10;;;;;;;16.02;28.63;101507.38;5001203;28;20175;-61
2022/03/23 11:06:05;;;;;;;19.07;15.93;;;;;;;16.21;27.61;101503.78;5006696;28;20653;-62
2022/03/23 11:08:31;;;;;;;18.33;16.50;;;;;;;15.85;29.50;101491.91;5009336;28;20186;-60
2022/03/23 11:16:53;;;;;;;29.03;17.13;;;;;;;16.37;29.99;101482.97;5010746;28;20252;-63
2022/03/23 11:19:23;;;;;;;19.67;17.07;;;;;;;16.54;30.23;101482.03;4994528;28;20180;-63
2022/03/23 11:22:04;;;;;;;18.33;16.43;;;;;;;16.40;30.13;101481.03;4985677;28;20580;-63
2022/03/23 11:24:37;;;;;;;19.52;17.38;;;;;;;16.76;28.97;101479.00;4973990;28;20560;-64
2022/03/23 11:27:10;;;;;;;18.47;16.27;;;;;;;16.83;29.67;101480.31;4978348;28;20210;-69
2022/03/23 11:29:39;;;;;;;20.60;16.70;;;;;;;17.10;28.56;101472.69;5010817;28;20309;-66
2022/03/23 11:32:11;;;;;;;18.80;16.70;;;;;;;16.77;27.89;101472.88;4984698;28;20269;-66